Time;durP1;ratioP1;P1;durP2;ratioP2;P2;SDS_P1;SDS_P2;PMS_P1;PMS_P2;Temp;Humidity;BMP_temperature;BMP_pressure;BME280_temperature;BME280_humidity;BME280_pressure;Samples;Min_cycle;Max_cycle;Signal;HPM_P1;HPM_P2
2022/11/05 00:11:00;;;;;;;11.80;3.87;;;8.90;99.90;;;;;;4148087;28;20184;-93
2022/11/05 00:17:39;;;;;;;18.07;4.37;;;8.70;99.90;;;;;;4148272;28;20181;-92
2022/11/05 00:19:40;;;;;;;8.57;4.10;;;8.70;99.90;;;;;;4134969;28;20185;-93
2022/11/05 00:26:19;;;;;;;9.37;4.27;;;8.60;99.90;;;;;;4151136;28;20240;-92
2022/11/05 00:28:19;;;;;;;15.00;5.23;;;8.70;99.90;;;;;;4135055;28;20182;-90
2022/11/05 00:30:23;;;;;;;18.03;4.80;;;8.70;99.90;;;;;;4134963;28;20205;-91
2022/11/05 00:32:24;;;;;;;12.05;4.72;;;8.60;99.90;;;;;;4135033;28;20198;-91
2022/11/05 00:34:24;;;;;;;17.50;5.57;;;8.60;99.90;;;;;;4134932;28;20166;-94
2022/11/05 00:36:25;;;;;;;20.60;5.27;;;8.70;99.90;;;;;;4118716;28;20174;-94
2022/11/05 00:38:26;;;;;;;18.57;5.27;;;8.60;99.90;;;;;;4134497;28;20177;-92
2022/11/05 00:40:26;;;;;;;21.57;5.33;;;8.60;99.90;;;;;;4118465;28;20290;-91
2022/11/05 00:45:02;;;;;;;15.17;5.57;;;8.50;99.90;;;;;;4150928;28;20311;-92
2022/11/05 00:49:30;;;;;;;12.83;5.70;;;8.40;99.90;;;;;;4150816;28;20177;-94
2022/11/05 00:51:31;;;;;;;11.70;5.20;;;8.50;99.90;;;;;;4134584;28;20199;-90
2022/11/05 00:53:32;;;;;;;16.53;5.77;;;8.50;99.90;;;;;;4134641;28;20170;-93
2022/11/05 00:55:43;;;;;;;15.63;5.70;;;8.50;99.90;;;;;;4134549;28;20276;-91
2022/11/05 00:57:44;;;;;;;14.43;5.40;;;8.50;99.90;;;;;;4134595;28;20243;-93
2022/11/05 00:59:45;;;;;;;13.90;6.07;;;8.40;99.90;;;;;;4118215;28;20217;-91
2022/11/05 01:01:46;;;;;;;17.60;5.93;;;8.40;99.90;;;;;;4134184;28;20300;-93
2022/11/05 01:03:46;;;;;;;12.70;5.80;;;8.40;99.90;;;;;;4134529;28;20258;-91
2022/11/05 01:05:50;;;;;;;17.03;6.00;;;8.40;99.90;;;;;;4134384;28;20654;-94
2022/11/05 01:07:52;;;;;;;12.00;6.37;;;8.40;99.90;;;;;;4134316;28;20202;-92
2022/11/05 01:09:52;;;;;;;16.83;5.67;;;8.30;99.90;;;;;;4134253;28;20658;-91
2022/11/05 01:11:54;;;;;;;15.43;6.13;;;8.30;99.90;;;;;;4118181;28;20216;-92
2022/11/05 01:13:55;;;;;;;18.47;6.57;;;8.30;99.90;;;;;;4134193;28;20182;-90
2022/11/05 01:15:56;;;;;;;13.37;5.93;;;8.30;99.90;;;;;;4118288;28;20228;-91
2022/11/05 01:17:57;;;;;;;13.77;6.00;;;8.20;99.90;;;;;;4134005;28;20192;-91
2022/11/05 01:19:57;;;;;;;15.80;6.50;;;8.30;99.90;;;;;;4117862;28;20166;-94
2022/11/05 01:21:58;;;;;;;16.93;6.57;;;8.20;99.90;;;;;;4134044;28;20267;-92
2022/11/05 01:23:59;;;;;;;15.57;6.50;;;8.20;99.90;;;;;;4117999;28;20261;-93
2022/11/05 01:26:00;;;;;;;19.63;7.13;;;8.20;99.90;;;;;;4133996;28;20184;-91
2022/11/05 01:28:02;;;;;;;16.60;6.40;;;8.20;99.90;;;;;;4134163;28;20635;-90
2022/11/05 01:30:05;;;;;;;14.33;7.33;;;8.20;99.90;;;;;;4132710;28;20180;-91
2022/11/05 01:32:05;;;;;;;15.27;6.90;;;8.20;99.90;;;;;;4134008;28;20201;-92
2022/11/05 01:34:07;;;;;;;14.97;6.97;;;8.20;99.90;;;;;;4133758;28;20598;-94
2022/11/05 01:36:08;;;;;;;18.07;7.30;;;8.30;99.90;;;;;;4133831;28;20220;-91
2022/11/05 01:38:09;;;;;;;17.10;6.93;;;8.30;99.90;;;;;;4133921;28;20659;-92
2022/11/05 01:40:12;;;;;;;15.87;6.37;;;8.40;99.90;;;;;;4133792;28;20236;-92
2022/11/05 01:42:19;;;;;;;17.43;6.53;;;8.30;99.90;;;;;;4133519;28;20606;-91
2022/11/05 01:44:49;;;;;;;17.50;6.83;;;8.30;99.90;;;;;;4133666;28;20273;-92
2022/11/05 01:46:49;;;;;;;16.60;6.53;;;8.30;99.90;;;;;;4133608;28;20180;-92
2022/11/05 01:48:52;;;;;;;12.73;6.47;;;8.20;99.90;;;;;;4118716;28;20174;-91
2022/11/05 01:51:22;;;;;;;17.80;7.27;;;8.30;99.90;;;;;;4134270;28;20181;-91
2022/11/05 01:53:41;;;;;;;19.13;7.77;;;8.30;99.90;;;;;;4103788;28;20210;-91
2022/11/05 01:56:01;;;;;;;18.87;6.70;;;8.30;99.90;;;;;;4133960;28;20174;-92
2022/11/05 01:58:05;;;;;;;19.83;6.87;;;8.30;99.90;;;;;;4134223;28;20182;-92
2022/11/05 02:00:06;;;;;;;24.73;7.80;;;8.20;99.90;;;;;;4134184;28;20603;-94
2022/11/05 02:02:14;;;;;;;23.53;6.83;;;8.20;99.90;;;;;;4151940;28;20303;-91
2022/11/05 02:04:38;;;;;;;19.73;6.93;;;8.20;99.90;;;;;;4139957;28;20173;-93
2022/11/05 02:06:45;;;;;;;14.83;7.63;;;8.10;99.90;;;;;;4134519;28;20166;-91
2022/11/05 02:09:03;;;;;;;19.43;6.90;;;8.00;99.90;;;;;;4134418;28;20173;-91
2022/11/05 02:11:04;;;;;;;15.70;6.77;;;7.90;99.90;;;;;;4133531;28;20177;-91
2022/11/05 02:13:05;;;;;;;20.80;7.40;;;7.90;99.90;;;;;;4133496;28;20662;-93
2022/11/05 02:15:09;;;;;;;19.03;6.63;;;7.90;99.90;;;;;;4133693;28;20184;-91
2022/11/05 02:17:21;;;;;;;16.60;6.50;;;7.80;99.90;;;;;;4133364;28;20227;-91
2022/11/05 02:20:00;;;;;;;17.53;6.93;;;7.80;99.90;;;;;;4133510;28;20192;-93
2022/11/05 02:22:22;;;;;;;16.97;6.80;;;7.80;99.90;;;;;;4133304;28;20220;-93
2022/11/05 02:24:32;;;;;;;16.10;7.67;;;7.80;99.90;;;;;;4132970;28;20232;-91
2022/11/05 02:26:41;;;;;;;15.00;6.77;;;7.80;99.90;;;;;;4132865;28;20177;-92
2022/11/05 02:28:45;;;;;;;19.90;6.30;;;7.80;99.90;;;;;;4133115;28;20192;-91
2022/11/05 02:31:02;;;;;;;17.37;7.00;;;7.70;99.90;;;;;;4133134;28;20212;-92
2022/11/05 02:33:12;;;;;;;20.17;7.13;;;7.70;99.90;;;;;;4133046;28;20197;-91
2022/11/05 02:35:22;;;;;;;18.50;6.47;;;7.70;99.90;;;;;;4149191;28;20168;-91
2022/11/05 02:37:40;;;;;;;28.73;7.23;;;7.60;99.90;;;;;;4133319;28;20224;-92
2022/11/05 02:40:21;;;;;;;16.77;7.67;;;7.70;99.90;;;;;;4134074;28;20199;-92
2022/11/05 02:42:22;;;;;;;16.87;7.60;;;7.70;99.90;;;;;;4137859;28;20216;-91
2022/11/05 02:44:48;;;;;;;24.17;7.67;;;7.70;99.90;;;;;;4116776;28;20182;-93
2022/11/05 02:47:18;;;;;;;17.33;7.70;;;7.80;99.90;;;;;;4132852;28;20193;-92
2022/11/05 02:49:33;;;;;;;17.83;7.47;;;7.80;99.90;;;;;;4132965;28;20280;-91
2022/11/05 02:51:42;;;;;;;20.90;8.03;;;7.80;99.90;;;;;;4132877;28;20540;-92
2022/11/05 02:54:44;;;;;;;18.00;8.67;;;7.80;99.90;;;;;;4132908;28;20181;-94
2022/11/05 02:56:52;;;;;;;17.60;8.40;;;7.90;99.90;;;;;;4068913;29;20282;-92
2022/11/05 02:58:52;;;;;;;25.50;9.00;;;7.80;99.90;;;;;;4053241;29;20204;-91
2022/11/05 03:00:54;;;;;;;21.00;8.57;;;7.70;99.90;;;;;;4080211;28;20260;-93
2022/11/05 03:02:55;;;;;;;22.70;9.10;;;7.80;99.90;;;;;;4132500;28;20232;-91
2022/11/05 03:04:57;;;;;;;18.27;8.60;;;7.80;99.90;;;;;;4132453;28;20169;-91
2022/11/05 03:08:00;;;;;;;18.60;7.70;;;7.80;99.90;;;;;;4132379;28;20173;-91
2022/11/05 03:10:26;;;;;;;20.20;7.83;;;7.80;99.90;;;;;;4093886;28;20184;-92
2022/11/05 03:12:57;;;;;;;21.53;8.30;;;7.90;99.90;;;;;;4132027;28;20645;-94
2022/11/05 03:15:14;;;;;;;21.37;8.40;;;7.80;99.90;;;;;;4132261;28;20538;-92
2022/11/05 03:17:39;;;;;;;24.67;8.30;;;7.70;99.90;;;;;;4132598;28;20302;-93
2022/11/05 03:19:53;;;;;;;23.93;8.60;;;7.80;99.90;;;;;;4132465;28;20614;-91
2022/11/05 03:21:56;;;;;;;19.57;8.20;;;7.70;99.90;;;;;;4132195;28;20248;-92
2022/11/05 03:24:13;;;;;;;17.37;9.47;;;7.80;99.90;;;;;;4132182;28;20674;-90
2022/11/05 03:26:20;;;;;;;21.60;8.17;;;7.80;99.90;;;;;;4132117;28;20178;-91
2022/11/05 03:28:26;;;;;;;23.90;9.60;;;7.80;99.90;;;;;;4132213;28;20546;-92
2022/11/05 03:30:26;;;;;;;23.40;8.73;;;7.90;99.90;;;;;;4132021;28;20174;-92
2022/11/05 03:32:32;;;;;;;22.93;9.17;;;7.90;99.90;;;;;;4132210;28;20201;-91
2022/11/05 03:34:45;;;;;;;17.80;8.57;;;7.90;99.90;;;;;;4132146;28;20185;-93
2022/11/05 03:36:50;;;;;;;20.13;8.80;;;8.00;99.90;;;;;;4132311;28;20233;-91
2022/11/05 03:38:55;;;;;;;24.27;8.37;;;8.00;99.90;;;;;;4132165;28;20177;-93
2022/11/05 03:41:00;;;;;;;24.17;7.80;;;8.00;99.90;;;;;;4132139;28;20296;-91
2022/11/05 03:43:05;;;;;;;22.03;7.93;;;7.90;99.90;;;;;;4131788;28;20300;-95
2022/11/05 03:45:13;;;;;;;18.13;7.53;;;7.80;99.90;;;;;;4131826;28;20176;-91
2022/11/05 03:47:18;;;;;;;14.23;7.27;;;7.90;99.90;;;;;;4131996;28;20184;-92
2022/11/05 03:49:26;;;;;;;21.37;7.93;;;7.90;99.90;;;;;;4132025;28;20194;-90
2022/11/05 03:51:35;;;;;;;16.73;7.83;;;7.80;99.90;;;;;;4131986;28;20272;-91
2022/11/05 03:53:46;;;;;;;15.13;7.13;;;7.70;99.90;;;;;;4150219;28;20172;-91
2022/11/05 03:55:59;;;;;;;17.17;7.90;;;7.70;99.90;;;;;;4135671;28;20169;-92
2022/11/05 03:58:03;;;;;;;13.43;7.33;;;7.60;99.90;;;;;;4135560;28;20679;-91
2022/11/05 04:00:07;;;;;;;22.87;7.67;;;7.50;99.90;;;;;;4135242;28;20192;-91
2022/11/05 04:02:14;;;;;;;20.23;7.97;;;7.50;99.90;;;;;;4135622;28;20264;-91
2022/11/05 04:04:15;;;;;;;15.70;6.97;;;7.50;99.90;;;;;;4135352;28;20173;-92
2022/11/05 04:13:25;;;;;;;21.60;8.23;;;7.50;99.90;;;;;;4151193;28;20223;-93
2022/11/05 04:15:26;;;;;;;15.57;7.40;;;7.50;99.90;;;;;;4135201;28;20260;-92
2022/11/05 04:17:26;;;;;;;18.07;7.37;;;7.50;99.90;;;;;;4151424;28;20183;-94
2022/11/05 04:24:07;;;;;;;21.70;8.20;;;7.50;99.90;;;;;;4151247;28;20553;-91
2022/11/05 04:26:07;;;;;;;16.33;8.00;;;7.40;99.90;;;;;;4134969;28;20205;-91
2022/11/05 04:28:08;;;;;;;18.10;8.57;;;7.40;99.90;;;;;;4134901;28;20201;-93
2022/11/05 04:30:18;;;;;;;19.30;7.57;;;7.30;99.90;;;;;;4118753;28;20623;-93
2022/11/05 04:32:19;;;;;;;17.23;7.87;;;7.30;99.90;;;;;;4134865;28;20620;-92
2022/11/05 04:34:20;;;;;;;18.20;7.60;;;7.40;99.90;;;;;;4134747;28;20174;-91
2022/11/05 04:36:21;;;;;;;14.67;7.70;;;7.40;99.90;;;;;;4118725;28;20181;-94
2022/11/05 04:38:22;;;;;;;17.97;7.20;;;7.50;99.90;;;;;;4134865;28;20189;-91
2022/11/05 04:40:23;;;;;;;19.67;8.17;;;7.50;99.90;;;;;;4118625;28;20241;-94
2022/11/05 04:42:24;;;;;;;18.70;8.00;;;7.50;99.90;;;;;;4134610;28;20272;-94
2022/11/05 04:44:24;;;;;;;19.97;7.80;;;7.50;99.90;;;;;;4118589;28;20258;-93
2022/11/05 04:46:25;;;;;;;17.60;7.83;;;7.40;99.90;;;;;;4134397;28;20276;-92
2022/11/05 04:48:26;;;;;;;19.97;7.77;;;7.30;99.90;;;;;;4134620;28;20260;-92
2022/11/05 04:50:27;;;;;;;17.77;8.07;;;7.30;99.90;;;;;;4134737;28;20174;-93
2022/11/05 04:52:27;;;;;;;18.73;8.53;;;7.40;99.90;;;;;;4118266;28;20201;-91
2022/11/05 04:54:28;;;;;;;17.30;8.37;;;7.50;99.90;;;;;;4134334;28;20174;-91
2022/11/05 04:56:29;;;;;;;21.07;7.83;;;7.40;99.90;;;;;;4134643;28;20181;-91
2022/11/05 04:58:30;;;;;;;25.77;8.70;;;7.30;99.90;;;;;;4134784;28;20256;-91
2022/11/05 05:00:30;;;;;;;18.63;7.90;;;7.20;99.90;;;;;;4118569;28;20658;-91
2022/11/05 05:02:31;;;;;;;20.73;7.83;;;7.10;99.90;;;;;;4150769;28;20352;-91
2022/11/05 05:04:32;;;;;;;17.27;8.30;;;7.10;99.90;;;;;;4134019;28;20177;-92
2022/11/05 05:06:33;;;;;;;26.20;9.03;;;7.10;99.90;;;;;;4134418;28;20189;-92
2022/11/05 05:08:34;;;;;;;17.97;8.00;;;7.10;99.90;;;;;;4118331;28;20166;-91
2022/11/05 05:10:34;;;;;;;24.40;8.93;;;7.10;99.90;;;;;;4134327;28;20643;-91
2022/11/05 05:12:35;;;;;;;22.13;9.07;;;7.10;99.90;;;;;;4134905;28;20295;-91
2022/11/05 05:14:36;;;;;;;22.63;8.83;;;7.10;99.90;;;;;;4134042;28;20276;-91
2022/11/05 05:16:37;;;;;;;24.03;9.70;;;7.20;99.90;;;;;;4118087;28;20692;-94
2022/11/05 05:18:37;;;;;;;20.70;8.50;;;7.10;99.90;;;;;;4134115;28;20177;-92
2022/11/05 05:22:58;;;;;;;21.73;8.70;;;7.10;99.90;;;;;;4150280;28;20192;-91
2022/11/05 05:24:58;;;;;;;21.37;8.67;;;7.00;99.90;;;;;;4134061;28;20324;-91
2022/11/05 05:27:00;;;;;;;19.43;9.60;;;7.00;99.90;;;;;;4134057;28;20613;-93
2022/11/05 05:29:00;;;;;;;24.40;8.97;;;7.00;99.90;;;;;;4134048;28;20174;-92
2022/11/05 05:31:01;;;;;;;25.93;9.27;;;7.00;99.90;;;;;;4133926;28;20173;-91
2022/11/05 05:33:03;;;;;;;17.70;9.00;;;6.90;99.90;;;;;;4134118;28;20205;-92
2022/11/05 05:35:04;;;;;;;18.13;9.20;;;6.80;99.90;;;;;;4150412;28;20219;-92
2022/11/05 05:37:05;;;;;;;18.77;8.67;;;6.80;99.90;;;;;;4134011;28;20186;-91
2022/11/05 05:39:09;;;;;;;19.73;9.17;;;6.80;99.90;;;;;;4133961;28;20174;-93
2022/11/05 05:41:10;;;;;;;17.80;9.47;;;6.80;99.90;;;;;;4133581;28;20206;-92
2022/11/05 05:43:11;;;;;;;19.63;9.30;;;6.80;99.90;;;;;;4117737;28;20280;-95
2022/11/05 05:45:11;;;;;;;21.97;8.27;;;6.80;99.90;;;;;;4134003;28;20185;-94
2022/11/05 05:47:13;;;;;;;25.87;9.57;;;6.80;99.90;;;;;;4117631;28;20213;-93
2022/11/05 05:49:14;;;;;;;23.53;9.63;;;6.80;99.90;;;;;;4133747;28;20231;-93
2022/11/05 05:51:15;;;;;;;23.80;9.53;;;6.90;99.90;;;;;;4117529;28;20710;-94
2022/11/05 05:53:16;;;;;;;19.77;9.27;;;6.80;99.90;;;;;;4133647;28;20202;-95
2022/11/05 05:55:16;;;;;;;21.03;9.43;;;6.80;99.90;;;;;;4117817;28;20562;-91
2022/11/05 05:57:17;;;;;;;21.67;8.80;;;6.80;99.90;;;;;;4133725;28;20608;-92
2022/11/05 05:59:18;;;;;;;24.83;9.40;;;6.70;99.90;;;;;;4117604;28;20167;-94
2022/11/05 06:01:19;;;;;;;19.10;9.17;;;6.80;99.90;;;;;;4133456;28;20221;-92
2022/11/05 06:03:20;;;;;;;23.57;8.87;;;6.80;99.90;;;;;;4117456;28;20228;-92
2022/11/05 06:05:21;;;;;;;18.83;8.63;;;6.80;99.90;;;;;;4133565;28;20166;-91
2022/11/05 06:07:21;;;;;;;18.70;8.77;;;6.80;99.90;;;;;;4133468;28;20260;-92
2022/11/05 06:09:22;;;;;;;23.83;9.00;;;6.80;99.90;;;;;;4117252;28;20166;-92
2022/11/05 06:11:24;;;;;;;21.33;9.43;;;6.80;99.90;;;;;;4117243;28;20170;-92
2022/11/05 06:13:25;;;;;;;20.17;8.30;;;6.80;99.90;;;;;;4133250;28;20239;-91
2022/11/05 06:15:26;;;;;;;20.50;9.00;;;6.70;99.90;;;;;;4132539;28;20541;-91
2022/11/05 06:17:27;;;;;;;21.00;8.63;;;6.80;99.90;;;;;;4133097;28;20550;-92
2022/11/05 06:19:28;;;;;;;20.30;8.80;;;6.70;99.90;;;;;;4133345;28;20265;-92
2022/11/05 06:21:28;;;;;;;15.63;8.27;;;6.60;99.90;;;;;;4117195;28;20296;-92
2022/11/05 06:23:33;;;;;;;22.20;9.30;;;6.60;99.90;;;;;;4133186;28;20197;-94
2022/11/05 06:25:34;;;;;;;21.77;9.30;;;6.60;99.90;;;;;;4149214;28;20173;-93
2022/11/05 06:27:35;;;;;;;18.90;8.70;;;6.60;99.90;;;;;;4133160;28;20272;-91
2022/11/05 06:29:36;;;;;;;22.57;8.90;;;6.60;99.90;;;;;;4132991;28;20169;-92
2022/11/05 06:31:37;;;;;;;28.13;9.47;;;6.60;99.90;;;;;;4132965;28;20187;-94
2022/11/05 06:33:38;;;;;;;28.63;9.47;;;6.50;99.90;;;;;;4133147;28;20689;-91
2022/11/05 06:35:39;;;;;;;19.97;9.17;;;6.50;99.90;;;;;;4133266;28;20257;-94
2022/11/05 06:37:40;;;;;;;19.20;8.73;;;6.50;99.90;;;;;;4132994;28;20229;-91
2022/11/05 06:39:41;;;;;;;21.33;9.23;;;6.60;99.90;;;;;;4116839;28;20259;-92
2022/11/05 06:41:43;;;;;;;19.03;8.40;;;6.60;99.90;;;;;;4132627;28;20213;-91
2022/11/05 06:43:44;;;;;;;22.73;8.97;;;6.70;99.90;;;;;;4149106;28;20173;-91
2022/11/05 06:45:44;;;;;;;29.37;9.37;;;6.60;99.90;;;;;;4116574;28;20182;-92
2022/11/05 06:47:45;;;;;;;23.03;9.10;;;6.60;99.90;;;;;;4132723;28;20173;-93
2022/11/05 06:49:46;;;;;;;24.30;8.97;;;6.70;99.90;;;;;;4132714;28;20174;-92
2022/11/05 06:51:47;;;;;;;26.07;9.50;;;6.70;99.90;;;;;;4133194;28;20177;-93
2022/11/05 06:53:48;;;;;;;21.70;9.17;;;6.60;99.90;;;;;;4135302;28;20169;-91
2022/11/05 06:55:48;;;;;;;24.60;8.37;;;6.60;99.90;;;;;;4132827;28;20202;-94
2022/11/05 06:57:49;;;;;;;25.20;9.13;;;6.60;99.90;;;;;;4132838;28;20173;-93
2022/11/05 06:59:50;;;;;;;20.70;8.43;;;6.70;99.90;;;;;;4116711;28;20271;-91
2022/11/05 07:01:51;;;;;;;23.17;8.57;;;6.60;99.90;;;;;;4133014;28;20646;-91
2022/11/05 07:03:52;;;;;;;30.40;9.10;;;6.60;99.90;;;;;;4133026;28;20220;-93
2022/11/05 07:05:53;;;;;;;27.87;8.13;;;6.60;99.90;;;;;;4133011;28;20177;-91
2022/11/05 07:07:53;;;;;;;20.07;9.83;;;6.70;99.90;;;;;;4116814;28;20622;-92
2022/11/05 07:09:55;;;;;;;15.77;8.33;;;6.80;99.90;;;;;;4132744;28;20201;-92
2022/11/05 07:11:56;;;;;;;22.33;8.70;;;6.90;99.90;;;;;;4132611;28;20213;-94
2022/11/05 07:13:57;;;;;;;20.37;7.60;;;6.90;99.90;;;;;;4134803;28;20170;-93
2022/11/05 07:15:57;;;;;;;18.97;8.37;;;6.90;99.90;;;;;;4125465;28;20238;-89
2022/11/05 07:18:00;;;;;;;22.10;8.33;;;7.00;99.90;;;;;;4151755;28;20200;-92
2022/11/05 07:20:01;;;;;;;17.67;7.73;;;7.10;99.90;;;;;;4133630;28;20268;-93
2022/11/05 07:22:01;;;;;;;20.80;8.40;;;7.10;99.90;;;;;;4132713;28;20221;-95
2022/11/05 07:24:02;;;;;;;19.40;7.93;;;7.00;99.90;;;;;;4116545;28;20170;-91
2022/11/05 07:26:03;;;;;;;22.37;8.30;;;7.10;99.90;;;;;;4116679;28;20213;-92
2022/11/05 07:28:05;;;;;;;20.07;8.00;;;7.10;99.90;;;;;;4132505;28;20210;-93
2022/11/05 07:30:07;;;;;;;18.60;8.10;;;7.10;99.90;;;;;;4132349;28;20177;-94
2022/11/05 07:32:08;;;;;;;14.33;7.83;;;7.10;99.90;;;;;;4132719;28;20220;-93
2022/11/05 07:34:09;;;;;;;17.57;7.47;;;7.10;99.90;;;;;;4116417;28;20209;-94
2022/11/05 07:36:10;;;;;;;19.60;7.27;;;7.20;99.90;;;;;;4132425;28;20199;-91
2022/11/05 07:38:10;;;;;;;23.40;7.80;;;7.30;99.90;;;;;;4116373;28;20535;-91
2022/11/05 07:40:13;;;;;;;17.73;7.77;;;7.20;99.90;;;;;;4132488;28;20189;-93
2022/11/05 07:42:13;;;;;;;23.37;8.37;;;7.30;99.90;;;;;;4132207;28;20246;-92
2022/11/05 07:44:16;;;;;;;24.63;8.17;;;7.30;99.90;;;;;;4116449;28;20178;-92
2022/11/05 07:46:17;;;;;;;18.90;7.83;;;7.40;99.90;;;;;;4132422;28;20192;-92
2022/11/05 07:48:17;;;;;;;18.47;8.00;;;7.30;99.90;;;;;;4116180;28;20174;-91
2022/11/05 07:50:22;;;;;;;16.03;7.77;;;7.40;99.90;;;;;;4132739;28;20185;-92
2022/11/05 07:52:23;;;;;;;19.90;7.87;;;7.60;99.90;;;;;;4132389;28;20223;-92
2022/11/05 07:54:25;;;;;;;17.87;7.80;;;7.80;99.90;;;;;;4132349;28;20177;-91
2022/11/05 07:56:26;;;;;;;18.03;7.40;;;8.30;99.90;;;;;;4132510;28;20240;-92
2022/11/05 07:58:27;;;;;;;13.30;6.03;;;8.90;99.90;;;;;;4132694;28;20539;-93
2022/11/05 08:00:28;;;;;;;16.20;6.03;;;9.80;99.90;;;;;;4132377;28;20264;-96
2022/11/05 08:02:29;;;;;;;11.65;5.80;;;10.20;99.90;;;;;;4131983;28;20217;-95
2022/11/05 08:04:29;;;;;;;9.82;4.80;;;11.00;99.90;;;;;;4132478;28;20244;-93
2022/11/05 08:06:30;;;;;;;13.15;4.65;;;11.50;99.90;;;;;;4116463;28;20646;-94
2022/11/05 08:08:31;;;;;;;11.65;4.70;;;11.30;99.90;;;;;;4132493;28;20209;-93
2022/11/05 08:10:35;;;;;;;9.18;4.43;;;11.10;99.90;;;;;;4116693;28;20206;-93
2022/11/05 08:12:36;;;;;;;12.63;5.25;;;10.80;99.90;;;;;;4132908;28;20625;-94
2022/11/05 08:14:36;;;;;;;15.95;4.95;;;10.60;99.90;;;;;;4132209;28;20173;-94
2022/11/05 08:16:37;;;;;;;13.70;4.65;;;10.60;99.90;;;;;;4131963;28;20630;-92
2022/11/05 08:18:38;;;;;;;14.15;4.63;;;10.60;99.90;;;;;;4132009;28;20181;-95
2022/11/05 08:20:40;;;;;;;14.23;5.03;;;10.50;99.90;;;;;;4132044;28;20178;-93
2022/11/05 08:22:43;;;;;;;15.15;4.85;;;10.30;99.90;;;;;;4132075;28;20213;-95
2022/11/05 08:24:43;;;;;;;12.98;4.68;;;10.20;99.90;;;;;;4131815;28;20169;-92
2022/11/05 08:26:44;;;;;;;12.48;4.72;;;9.90;99.90;;;;;;4115487;28;20180;-96
2022/11/05 08:28:45;;;;;;;11.63;4.78;;;9.60;99.90;;;;;;4132193;28;20185;-94
2022/11/05 08:30:50;;;;;;;13.95;5.13;;;9.50;99.90;;;;;;4115931;28;20656;-94
2022/11/05 08:32:56;;;;;;;12.57;5.07;;;9.40;99.90;;;;;;4131974;28;20190;-96
2022/11/05 08:34:57;;;;;;;12.43;5.40;;;9.40;99.90;;;;;;4132625;28;20184;-94
2022/11/05 08:37:00;;;;;;;18.80;5.75;;;9.50;99.90;;;;;;4132105;28;20633;-96
2022/11/05 08:39:00;;;;;;;12.30;5.10;;;9.50;99.90;;;;;;4132688;28;20188;-93
2022/11/05 08:41:01;;;;;;;14.30;5.57;;;9.50;99.90;;;;;;4118723;28;20623;-94
2022/11/05 08:43:05;;;;;;;10.75;5.30;;;9.70;99.90;;;;;;4134978;28;20208;-95
2022/11/05 08:45:06;;;;;;;15.80;5.13;;;9.80;99.90;;;;;;4134951;28;20946;-96
2022/11/05 08:47:07;;;;;;;9.55;4.57;;;10.20;99.90;;;;;;4134984;28;20185;-93
2022/11/05 08:49:08;;;;;;;12.27;5.40;;;10.20;99.90;;;;;;4134761;28;20335;-92
2022/11/05 08:51:09;;;;;;;9.00;4.72;;;10.20;99.90;;;;;;4134714;28;20216;-95
2022/11/05 08:53:10;;;;;;;12.07;4.68;;;10.50;99.90;;;;;;4134675;28;20566;-93
2022/11/05 08:55:11;;;;;;;10.48;4.55;;;10.40;99.90;;;;;;4150891;28;20235;-93
2022/11/05 08:57:11;;;;;;;13.68;4.22;;;10.40;99.90;;;;;;4134703;28;20173;-94
2022/11/05 08:59:12;;;;;;;11.20;4.43;;;10.30;99.90;;;;;;4134480;28;20178;-93
2022/11/05 09:01:13;;;;;;;13.88;5.00;;;10.20;99.90;;;;;;4134742;28;20237;-93
2022/11/05 09:03:14;;;;;;;13.57;4.40;;;10.30;99.90;;;;;;4134417;28;20193;-94
2022/11/05 09:05:15;;;;;;;12.73;4.75;;;10.20;99.90;;;;;;4134677;28;20173;-93
2022/11/05 09:07:16;;;;;;;10.80;3.90;;;10.20;99.90;;;;;;4134384;28;20232;-92
2022/11/05 09:09:16;;;;;;;11.93;5.00;;;10.00;99.90;;;;;;4135178;28;20174;-94
2022/11/05 09:11:17;;;;;;;9.88;4.15;;;10.00;99.90;;;;;;4118533;28;20639;-95
2022/11/05 09:13:18;;;;;;;12.30;4.63;;;10.10;99.90;;;;;;4134406;28;20213;-94
2022/11/05 09:15:19;;;;;;;11.88;4.55;;;10.10;99.90;;;;;;4134628;28;20236;-92
2022/11/05 09:17:20;;;;;;;9.82;4.40;;;10.20;99.90;;;;;;4118582;28;20716;-93
2022/11/05 09:19:21;;;;;;;11.32;4.65;;;10.20;99.90;;;;;;4134243;28;20194;-93
2022/11/05 09:21:22;;;;;;;9.07;4.05;;;10.10;99.90;;;;;;4134317;28;20244;-94
2022/11/05 09:23:23;;;;;;;11.90;4.25;;;10.00;99.90;;;;;;4118242;28;20221;-95
2022/11/05 09:25:23;;;;;;;12.90;5.05;;;10.10;99.90;;;;;;4134032;28;20260;-94
2022/11/05 09:27:25;;;;;;;12.00;4.25;;;10.20;99.90;;;;;;4134120;28;20546;-94
2022/11/05 09:29:26;;;;;;;8.80;4.45;;;10.20;99.90;;;;;;4133970;28;20174;-93
2022/11/05 09:31:26;;;;;;;10.48;4.57;;;10.30;99.90;;;;;;4134030;28;20677;-92
2022/11/05 09:33:27;;;;;;;8.98;4.10;;;10.20;99.90;;;;;;4117655;28;20666;-93
2022/11/05 09:35:28;;;;;;;10.60;4.93;;;10.10;99.90;;;;;;4134506;28;20184;-94
2022/11/05 09:37:29;;;;;;;7.45;4.20;;;10.20;99.90;;;;;;4117792;28;20178;-93
2022/11/05 09:39:30;;;;;;;11.27;3.92;;;10.30;99.90;;;;;;4133905;28;20749;-93
2022/11/05 09:41:38;;;;;;;17.10;4.85;;;10.40;99.90;;;;;;4134250;28;20643;-92
2022/11/05 09:43:43;;;;;;;9.07;3.95;;;10.40;99.90;;;;;;4133912;28;20661;-93
2022/11/05 09:45:48;;;;;;;8.10;4.00;;;10.50;99.90;;;;;;4136613;28;20179;-92
2022/11/05 09:48:13;;;;;;;8.55;4.07;;;10.70;99.90;;;;;;4137932;28;20174;-93
2022/11/05 09:50:18;;;;;;;13.40;4.63;;;10.90;99.90;;;;;;4111708;28;20249;-94
2022/11/05 09:52:26;;;;;;;8.55;4.28;;;11.20;99.90;;;;;;4133369;28;20225;-94
2022/11/05 09:54:33;;;;;;;9.95;4.38;;;11.10;99.90;;;;;;4133793;28;20176;-92
2022/11/05 09:56:36;;;;;;;8.52;4.07;;;11.10;99.90;;;;;;4133695;28;20251;-92
2022/11/05 09:58:58;;;;;;;11.35;4.85;;;11.00;99.90;;;;;;4134078;28;20634;-92
2022/11/05 10:00:59;;;;;;;11.45;3.80;;;11.10;99.90;;;;;;4133764;28;20177;-92
2022/11/05 10:03:10;;;;;;;8.25;3.72;;;11.10;99.90;;;;;;4149934;28;20306;-92
2022/11/05 10:05:13;;;;;;;10.70;3.85;;;10.90;99.90;;;;;;4133519;28;20260;-92
2022/11/05 10:07:25;;;;;;;7.95;3.47;;;10.90;99.90;;;;;;4133790;28;20182;-94
2022/11/05 10:09:42;;;;;;;14.07;4.60;;;11.20;99.90;;;;;;4133849;28;20170;-93
2022/11/05 10:12:03;;;;;;;11.20;3.80;;;11.40;99.90;;;;;;4133330;28;20174;-91
2022/11/05 10:14:22;;;;;;;11.60;3.75;;;11.50;99.90;;;;;;4149997;28;20259;-92
2022/11/05 10:16:35;;;;;;;11.10;3.78;;;11.60;99.90;;;;;;4133536;28;20256;-93
2022/11/05 10:18:38;;;;;;;10.25;3.33;;;11.80;99.90;;;;;;4133584;28;20268;-92
2022/11/05 10:20:41;;;;;;;8.57;3.45;;;11.80;99.90;;;;;;4133289;28;20666;-92
2022/11/05 10:22:42;;;;;;;12.25;3.38;;;11.90;99.90;;;;;;4133281;28;20274;-93
2022/11/05 10:24:46;;;;;;;8.75;3.10;;;11.70;99.90;;;;;;4133766;28;20170;-93
2022/11/05 10:26:50;;;;;;;7.97;3.30;;;11.70;99.90;;;;;;4133443;28;20606;-93
2022/11/05 10:28:51;;;;;;;10.15;3.55;;;11.90;99.90;;;;;;4133370;28;20178;-93
2022/11/05 10:30:58;;;;;;;9.45;3.15;;;11.80;99.90;;;;;;4149706;28;20187;-94
2022/11/05 10:33:04;;;;;;;11.48;3.20;;;11.90;99.90;;;;;;4133711;28;20206;-94
2022/11/05 10:35:09;;;;;;;9.73;3.42;;;12.00;99.90;;;;;;4133492;28;20173;-91
2022/11/05 10:37:10;;;;;;;7.30;2.80;;;11.90;99.90;;;;;;4133214;28;20300;-94
2022/11/05 10:39:13;;;;;;;10.10;3.13;;;12.20;99.90;;;;;;4133581;28;20185;-96
2022/11/05 10:41:40;;;;;;;8.02;3.22;;;12.30;99.90;;;;;;4132966;28;20245;-93
2022/11/05 10:43:50;;;;;;;10.05;3.17;;;12.40;99.90;;;;;;4132963;28;20665;-93
2022/11/05 10:46:11;;;;;;;10.68;3.03;;;12.40;99.90;;;;;;4132967;28;20697;-94
2022/11/05 10:48:21;;;;;;;10.98;3.10;;;12.40;99.90;;;;;;4133143;28;20273;-94
2022/11/05 10:50:25;;;;;;;7.80;2.72;;;12.30;99.90;;;;;;4132870;28;20169;-92
2022/11/05 10:52:35;;;;;;;7.32;2.95;;;12.20;99.90;;;;;;4132815;28;20185;-92
2022/11/05 10:54:36;;;;;;;8.98;3.10;;;12.30;99.90;;;;;;4133275;28;20559;-93
2022/11/05 10:56:39;;;;;;;7.85;3.03;;;12.30;99.90;;;;;;4116835;28;20233;-93
2022/11/05 10:58:54;;;;;;;12.65;2.83;;;12.20;99.90;;;;;;4133061;28;20188;-92
2022/11/05 11:00:54;;;;;;;6.07;3.00;;;12.10;99.90;;;;;;4133079;28;20598;-90
2022/11/05 11:03:02;;;;;;;9.93;3.47;;;12.00;99.90;;;;;;4116801;28;20242;-92
2022/11/05 11:05:02;;;;;;;10.85;2.97;;;12.10;99.90;;;;;;4132657;28;20172;-94
2022/11/05 11:07:04;;;;;;;5.82;2.90;;;12.20;99.90;;;;;;4116388;28;20206;-92
2022/11/05 11:09:19;;;;;;;9.63;3.22;;;12.10;99.90;;;;;;4133172;28;20169;-91
2022/11/05 11:11:40;;;;;;;7.65;2.80;;;12.10;99.90;;;;;;4132676;28;20647;-93
2022/11/05 11:13:51;;;;;;;10.05;3.45;;;12.10;99.90;;;;;;4132712;28;20183;-92
2022/11/05 11:15:51;;;;;;;13.07;3.35;;;12.40;99.90;;;;;;4132635;28;20185;-92
2022/11/05 11:17:54;;;;;;;7.40;3.08;;;12.30;99.90;;;;;;4116493;28;20271;-90
2022/11/05 11:20:17;;;;;;;10.38;3.05;;;12.30;99.90;;;;;;4133088;28;20177;-92
2022/11/05 11:22:19;;;;;;;6.57;2.92;;;12.30;99.90;;;;;;4148571;28;20796;-93
2022/11/05 11:24:23;;;;;;;11.32;3.38;;;12.40;99.90;;;;;;4133291;28;20695;-92
2022/11/05 11:26:32;;;;;;;9.32;3.70;;;12.50;99.90;;;;;;4149433;28;20181;-95